Time;durP1;ratioP1;P1;durP2;ratioP2;P2;SDS_P1;SDS_P2;PMS_P1;PMS_P2;Temp;Humidity;BMP_temperature;BMP_pressure;BME280_temperature;BME280_humidity;BME280_pressure;Samples;Min_cycle;Max_cycle;Signal;HPM_P1;HPM_P2
2021/10/17 00:02:05;;;;;;;4.57;3.57;;;;;;;;;;5089550;28;20292;-66
2021/10/17 00:04:39;;;;;;;5.13;4.30;;;;;;;;;;5085404;28;20201;-67
2021/10/17 00:07:10;;;;;;;3.83;3.43;;;;;;;;;;5083133;28;20209;-66
2021/10/17 00:09:41;;;;;;;4.20;3.80;;;;;;;;;;5086661;28;20300;-66
2021/10/17 00:12:14;;;;;;;4.30;3.60;;;;;;;;;;5077103;28;20225;-66
2021/10/17 00:14:46;;;;;;;4.63;3.97;;;;;;;;;;5079819;28;20189;-66
2021/10/17 00:17:18;;;;;;;4.47;3.77;;;;;;;;;;5066658;28;20234;-66
2021/10/17 00:19:54;;;;;;;6.10;3.60;;;;;;;;;;5087743;28;20197;-66
2021/10/17 00:22:25;;;;;;;4.63;3.47;;;;;;;;;;5087384;28;20209;-66
2021/10/17 00:24:53;;;;;;;4.23;3.73;;;;;;;;;;5087555;28;20208;-66
2021/10/17 00:27:24;;;;;;;3.90;3.50;;;;;;;;;;5070463;28;20307;-66
2021/10/17 00:29:56;;;;;;;5.67;4.00;;;;;;;;;;5089103;28;20197;-67
2021/10/17 00:32:26;;;;;;;4.40;3.73;;;;;;;;;;5089773;28;20654;-66
2021/10/17 00:35:04;;;;;;;4.57;3.70;;;;;;;;;;5070468;28;20688;-66
2021/10/17 00:37:35;;;;;;;3.87;3.43;;;;;;;;;;5083567;28;20476;-66
2021/10/17 00:40:17;;;;;;;4.37;3.60;;;;;;;;;;5083111;28;20202;-66
2021/10/17 00:42:47;;;;;;;4.40;3.53;;;;;;;;;;5077047;28;20207;-67
2021/10/17 00:45:32;;;;;;;4.73;3.60;;;;;;;;;;5068808;28;20312;-67
2021/10/17 00:48:04;;;;;;;4.33;3.40;;;;;;;;;;5088547;28;20214;-66
2021/10/17 00:50:35;;;;;;;4.97;3.87;;;;;;;;;;5077299;28;20504;-66
2021/10/17 00:53:03;;;;;;;3.77;3.10;;;;;;;;;;5082070;28;20232;-66
2021/10/17 00:55:34;;;;;;;3.20;2.90;;;;;;;;;;5071578;28;20765;-67
2021/10/17 00:58:20;;;;;;;4.03;3.63;;;;;;;;;;5087321;28;20205;-66
2021/10/17 01:00:58;;;;;;;3.60;3.10;;;;;;;;;;5073544;28;20189;-66
2021/10/17 01:03:31;;;;;;;7.30;3.87;;;;;;;;;;5064887;28;20212;-66
2021/10/17 01:06:08;;;;;;;4.07;3.57;;;;;;;;;;5072743;28;20209;-66
2021/10/17 01:08:52;;;;;;;3.80;3.40;;;;;;;;;;5087110;28;20267;-66
2021/10/17 01:11:22;;;;;;;3.77;3.30;;;;;;;;;;5083904;28;20239;-66
2021/10/17 01:13:53;;;;;;;3.50;2.90;;;;;;;;;;5090633;28;20212;-66
2021/10/17 01:16:29;;;;;;;4.73;3.50;;;;;;;;;;5084396;28;20197;-66
2021/10/17 01:18:59;;;;;;;4.10;3.50;;;;;;;;;;5060814;28;20226;-66
2021/10/17 01:21:29;;;;;;;3.40;3.07;;;;;;;;;;5065180;28;20212;-66
2021/10/17 01:24:04;;;;;;;3.23;2.83;;;;;;;;;;5066128;28;20201;-66
2021/10/17 01:26:47;;;;;;;4.53;3.43;;;;;;;;;;5054353;28;20228;-66
2021/10/17 01:29:30;;;;;;;3.93;3.40;;;;;;;;;;5080556;28;20917;-66
2021/10/17 01:32:02;;;;;;;4.07;3.20;;;;;;;;;;5067083;28;20218;-66
2021/10/17 01:34:36;;;;;;;4.33;3.67;;;;;;;;;;5047014;28;20252;-66
2021/10/17 01:37:08;;;;;;;4.47;3.40;;;;;;;;;;5055811;28;20205;-66
2021/10/17 01:39:38;;;;;;;4.37;3.20;;;;;;;;;;5072129;28;20214;-66
2021/10/17 01:42:08;;;;;;;3.93;3.33;;;;;;;;;;5074691;28;20272;-66
2021/10/17 01:44:40;;;;;;;3.80;3.13;;;;;;;;;;5057372;28;20210;-66
2021/10/17 01:47:10;;;;;;;4.53;3.40;;;;;;;;;;5064664;28;20224;-66
2021/10/17 01:49:42;;;;;;;3.43;3.10;;;;;;;;;;5068178;28;20315;-66
2021/10/17 01:52:12;;;;;;;4.00;3.30;;;;;;;;;;5068164;28;20209;-66
2021/10/17 01:54:47;;;;;;;4.40;3.27;;;;;;;;;;5066614;28;20614;-66
2021/10/17 01:57:18;;;;;;;3.43;3.10;;;;;;;;;;5054073;28;20198;-66
2021/10/17 01:59:50;;;;;;;3.53;2.93;;;;;;;;;;5068743;28;20204;-66
2021/10/17 02:02:22;;;;;;;3.83;2.70;;;;;;;;;;5053292;28;20547;-66
2021/10/17 02:04:59;;;;;;;3.07;2.77;;;;;;;;;;5061354;28;20348;-66
2021/10/17 02:07:31;;;;;;;4.83;3.33;;;;;;;;;;5057117;28;20212;-66
2021/10/17 02:10:00;;;;;;;3.87;3.40;;;;;;;;;;5049328;28;20213;-66
2021/10/17 02:12:30;;;;;;;4.40;3.37;;;;;;;;;;5067935;28;20694;-66
2021/10/17 02:15:04;;;;;;;4.93;3.07;;;;;;;;;;5037749;28;20730;-66
2021/10/17 02:17:34;;;;;;;4.83;3.60;;;;;;;;;;5060647;28;20686;-66
2021/10/17 02:20:02;;;;;;;5.13;3.20;;;;;;;;;;5034310;28;20209;-66
2021/10/17 02:22:32;;;;;;;4.40;3.00;;;;;;;;;;5062837;28;20221;-66
2021/10/17 02:25:00;;;;;;;4.33;3.27;;;;;;;;;;5042251;28;20191;-66
2021/10/17 02:27:27;;;;;;;3.73;3.10;;;;;;;;;;5065881;28;20209;-66
2021/10/17 02:29:55;;;;;;;3.07;2.70;;;;;;;;;;5067543;28;20205;-66
2021/10/17 02:32:28;;;;;;;3.60;2.83;;;;;;;;;;5067913;28;20224;-66
2021/10/17 02:34:58;;;;;;;4.07;3.00;;;;;;;;;;5063586;28;20270;-66
2021/10/17 02:37:42;;;;;;;4.80;2.90;;;;;;;;;;5061324;28;20208;-66
2021/10/17 02:40:14;;;;;;;3.70;2.53;;;;;;;;;;5080222;28;20279;-66
2021/10/17 02:42:47;;;;;;;4.67;3.57;;;;;;;;;;5067495;28;20263;-66
2021/10/17 02:45:20;;;;;;;3.17;2.87;;;;;;;;;;5065777;28;20200;-66
2021/10/17 02:47:51;;;;;;;4.10;2.90;;;;;;;;;;5069204;28;20206;-66
2021/10/17 02:50:26;;;;;;;3.87;3.03;;;;;;;;;;5071406;28;20197;-66
2021/10/17 02:52:58;;;;;;;3.77;2.70;;;;;;;;;;5074783;28;20202;-67
2021/10/17 02:55:27;;;;;;;3.00;2.70;;;;;;;;;;5070525;28;20717;-66
2021/10/17 02:57:59;;;;;;;3.00;2.70;;;;;;;;;;5050782;28;20218;-66
2021/10/17 03:00:30;;;;;;;3.60;2.80;;;;;;;;;;5039556;28;21011;-66
2021/10/17 03:03:04;;;;;;;4.00;2.43;;;;;;;;;;5069667;28;20769;-66
2021/10/17 03:05:33;;;;;;;3.03;2.73;;;;;;;;;;5068783;28;20765;-66
2021/10/17 03:08:09;;;;;;;3.47;3.00;;;;;;;;;;5068609;28;20202;-67
2021/10/17 03:10:40;;;;;;;3.87;3.23;;;;;;;;;;5044203;28;20210;-66
2021/10/17 03:13:10;;;;;;;3.87;2.93;;;;;;;;;;5058780;28;20221;-66
2021/10/17 03:15:39;;;;;;;3.10;2.63;;;;;;;;;;5074425;28;20285;-67
2021/10/17 03:18:08;;;;;;;4.30;3.33;;;;;;;;;;5069729;28;20225;-66
2021/10/17 03:20:41;;;;;;;3.50;2.80;;;;;;;;;;5049946;28;20198;-67
2021/10/17 03:23:12;;;;;;;3.83;2.70;;;;;;;;;;5060922;28;20209;-66
2021/10/17 03:25:43;;;;;;;3.07;2.47;;;;;;;;;;5054932;28;20190;-66
2021/10/17 03:28:13;;;;;;;3.13;2.53;;;;;;;;;;5074724;28;20232;-66
2021/10/17 03:30:43;;;;;;;2.87;2.30;;;;;;;;;;5053743;28;20809;-67
2021/10/17 03:33:12;;;;;;;3.13;2.83;;;;;;;;;;5065881;28;20217;-66
2021/10/17 03:35:42;;;;;;;3.30;2.80;;;;;;;;;;5068967;28;20204;-66
2021/10/17 03:38:14;;;;;;;3.63;2.90;;;;;;;;;;5051734;28;20189;-66
2021/10/17 03:40:45;;;;;;;4.57;3.00;;;;;;;;;;5069170;28;20616;-67
2021/10/17 03:43:15;;;;;;;4.20;2.93;;;;;;;;;;5065038;28;20232;-66
2021/10/17 03:45:46;;;;;;;4.03;2.90;;;;;;;;;;5065645;28;20652;-66
2021/10/17 03:48:17;;;;;;;4.93;3.23;;;;;;;;;;5070709;28;20552;-66
2021/10/17 03:50:48;;;;;;;3.20;2.90;;;;;;;;;;5062589;28;20205;-66
2021/10/17 03:53:17;;;;;;;5.07;2.90;;;;;;;;;;5066350;28;20239;-66
2021/10/17 03:55:48;;;;;;;3.80;2.77;;;;;;;;;;5068697;28;20639;-66
2021/10/17 03:58:21;;;;;;;2.90;2.60;;;;;;;;;;5081528;28;20213;-66
2021/10/17 04:00:50;;;;;;;3.47;2.73;;;;;;;;;;5067424;28;20323;-68
2021/10/17 04:03:18;;;;;;;2.73;2.43;;;;;;;;;;5073083;28;20189;-67
2021/10/17 04:05:47;;;;;;;3.93;2.93;;;;;;;;;;5070895;28;20205;-66
2021/10/17 04:08:19;;;;;;;4.10;2.60;;;;;;;;;;5067613;28;20698;-66
2021/10/17 04:10:49;;;;;;;3.57;2.80;;;;;;;;;;5068126;28;20246;-66
2021/10/17 04:13:17;;;;;;;3.70;3.00;;;;;;;;;;5051761;28;20553;-66
2021/10/17 04:15:48;;;;;;;3.40;2.70;;;;;;;;;;5068174;28;20198;-66
2021/10/17 04:18:16;;;;;;;3.93;2.60;;;;;;;;;;5070390;28;20238;-67
2021/10/17 04:20:57;;;;;;;3.83;2.87;;;;;;;;;;5067153;28;20309;-66
2021/10/17 04:23:25;;;;;;;3.30;2.70;;;;;;;;;;5053137;28;20826;-66
2021/10/17 04:25:57;;;;;;;3.27;2.70;;;;;;;;;;5051036;28;20205;-66
2021/10/17 04:28:28;;;;;;;4.33;2.93;;;;;;;;;;5064035;28;20214;-66
2021/10/17 04:30:56;;;;;;;3.50;2.60;;;;;;;;;;5069523;28;20843;-66
2021/10/17 04:33:28;;;;;;;3.50;2.60;;;;;;;;;;5047921;28;20237;-67
2021/10/17 04:36:00;;;;;;;4.53;3.00;;;;;;;;;;5069502;28;20194;-66
2021/10/17 04:38:34;;;;;;;3.37;2.63;;;;;;;;;;5051780;28;20255;-66
2021/10/17 04:41:02;;;;;;;5.37;2.90;;;;;;;;;;5070856;28;20232;-66
2021/10/17 04:43:35;;;;;;;3.50;2.50;;;;;;;;;;5065664;28;20190;-66
2021/10/17 04:46:06;;;;;;;4.47;3.10;;;;;;;;;;5068635;28;20287;-67
2021/10/17 04:48:36;;;;;;;3.87;2.63;;;;;;;;;;5066648;28;20214;-66
2021/10/17 04:51:20;;;;;;;3.80;2.97;;;;;;;;;;5084189;28;20512;-66
2021/10/17 04:53:47;;;;;;;3.37;3.03;;;;;;;;;;5069226;28;20591;-66
2021/10/17 04:56:15;;;;;;;4.30;2.97;;;;;;;;;;5067992;28;20713;-66
2021/10/17 04:58:44;;;;;;;3.57;3.10;;;;;;;;;;5064037;28;20206;-66
2021/10/17 05:01:16;;;;;;;3.50;2.80;;;;;;;;;;5060747;28;20217;-67
2021/10/17 05:03:47;;;;;;;3.80;2.77;;;;;;;;;;5066873;28;20229;-66
2021/10/17 05:06:17;;;;;;;4.27;3.10;;;;;;;;;;5071480;28;20205;-67
2021/10/17 05:08:50;;;;;;;5.50;3.20;;;;;;;;;;5061682;28;20205;-66
2021/10/17 05:11:22;;;;;;;5.00;2.90;;;;;;;;;;5069684;28;20416;-66
2021/10/17 05:13:54;;;;;;;4.43;2.93;;;;;;;;;;5070398;28;20245;-66
2021/10/17 05:16:25;;;;;;;2.67;2.40;;;;;;;;;;5065946;28;20197;-66
2021/10/17 05:18:55;;;;;;;3.30;2.77;;;;;;;;;;5066127;28;20389;-66
2021/10/17 05:21:28;;;;;;;4.90;2.93;;;;;;;;;;5079295;28;20209;-66
2021/10/17 05:23:59;;;;;;;3.53;2.90;;;;;;;;;;5105618;28;20191;-66
2021/10/17 05:26:31;;;;;;;5.30;3.30;;;;;;;;;;5089365;28;20205;-66
2021/10/17 05:29:02;;;;;;;3.70;3.03;;;;;;;;;;5087470;28;20217;-66
2021/10/17 05:31:34;;;;;;;4.20;2.80;;;;;;;;;;5068576;28;20670;-66
2021/10/17 05:34:08;;;;;;;3.20;2.80;;;;;;;;;;5085112;28;20850;-66
2021/10/17 05:36:37;;;;;;;4.77;2.90;;;;;;;;;;5090806;28;20543;-66
2021/10/17 05:39:10;;;;;;;3.20;2.77;;;;;;;;;;5098024;28;20536;-66
2021/10/17 05:41:40;;;;;;;4.17;3.10;;;;;;;;;;5087326;28;20260;-66
2021/10/17 05:44:09;;;;;;;3.23;2.80;;;;;;;;;;5089025;28;20196;-66
2021/10/17 05:46:39;;;;;;;3.50;3.20;;;;;;;;;;5086601;28;20216;-66
2021/10/17 05:49:08;;;;;;;4.73;3.03;;;;;;;;;;5079203;28;20193;-66
2021/10/17 05:51:41;;;;;;;3.97;2.83;;;;;;;;;;5099023;28;20195;-66
2021/10/17 05:54:14;;;;;;;4.00;2.67;;;;;;;;;;5091545;28;20278;-67
2021/10/17 05:56:46;;;;;;;4.40;2.90;;;;;;;;;;5113638;28;20192;-65
2021/10/17 05:59:14;;;;;;;3.83;3.10;;;;;;;;;;5069516;28;20219;-65
2021/10/17 06:01:43;;;;;;;5.17;2.90;;;;;;;;;;5106906;28;20193;-64
2021/10/17 06:04:27;;;;;;;5.80;3.00;;;;;;;;;;5071554;28;20330;-64
2021/10/17 06:06:59;;;;;;;4.10;3.10;;;;;;;;;;5086565;28;20224;-66
2021/10/17 06:09:41;;;;;;;5.77;3.03;;;;;;;;;;5061490;28;20543;-65
2021/10/17 06:12:15;;;;;;;3.50;3.03;;;;;;;;;;5085005;28;20228;-64
2021/10/17 06:14:48;;;;;;;4.13;3.00;;;;;;;;;;5085562;28;20242;-64
2021/10/17 06:17:21;;;;;;;4.63;2.90;;;;;;;;;;5084357;28;20197;-65
2021/10/17 06:19:52;;;;;;;4.53;3.00;;;;;;;;;;5051015;28;20237;-65
2021/10/17 06:22:25;;;;;;;3.80;2.93;;;;;;;;;;5044988;28;20308;-65
2021/10/17 06:24:59;;;;;;;3.83;3.23;;;;;;;;;;5068379;28;20189;-66
2021/10/17 06:27:30;;;;;;;5.30;3.33;;;;;;;;;;5066427;28;20625;-65
2021/10/17 06:30:01;;;;;;;3.47;3.10;;;;;;;;;;5059196;28;20190;-65
2021/10/17 06:32:46;;;;;;;4.37;2.87;;;;;;;;;;5063238;28;20213;-65
2021/10/17 06:35:17;;;;;;;3.47;2.80;;;;;;;;;;5057039;28;20236;-65
2021/10/17 06:37:46;;;;;;;3.80;3.27;;;;;;;;;;5062650;28;20212;-65
2021/10/17 06:40:15;;;;;;;4.00;2.80;;;;;;;;;;5065248;28;20197;-65
2021/10/17 06:42:46;;;;;;;5.23;3.50;;;;;;;;;;5056411;28;20211;-65
2021/10/17 06:45:18;;;;;;;7.60;3.37;;;;;;;;;;5054979;28;20226;-67
2021/10/17 06:47:49;;;;;;;7.17;3.73;;;;;;;;;;5059553;28;20194;-67
2021/10/17 06:50:21;;;;;;;6.17;3.63;;;;;;;;;;5061083;28;20218;-67
2021/10/17 06:52:52;;;;;;;4.53;3.27;;;;;;;;;;5061438;28;20715;-67
2021/10/17 06:55:23;;;;;;;5.20;3.37;;;;;;;;;;5062155;28;20199;-67
2021/10/17 06:57:53;;;;;;;4.53;2.90;;;;;;;;;;5060212;28;20201;-67
2021/10/17 07:00:23;;;;;;;5.37;4.00;;;;;;;;;;5063547;28;20267;-66
2021/10/17 07:02:51;;;;;;;6.07;3.97;;;;;;;;;;5050116;28;20281;-68
2021/10/17 07:05:25;;;;;;;5.80;4.03;;;;;;;;;;5061533;28;20274;-68
2021/10/17 07:07:56;;;;;;;4.43;3.53;;;;;;;;;;5059162;28;20281;-69
2021/10/17 07:10:28;;;;;;;8.43;4.23;;;;;;;;;;5061396;28;20205;-66
2021/10/17 07:12:57;;;;;;;5.43;4.00;;;;;;;;;;5065989;28;20218;-70
2021/10/17 07:15:27;;;;;;;5.93;4.37;;;;;;;;;;5070513;28;20227;-67
2021/10/17 07:17:56;;;;;;;6.43;4.10;;;;;;;;;;5065280;28;20257;-67
2021/10/17 07:20:33;;;;;;;6.73;4.60;;;;;;;;;;5067402;28;20201;-67
2021/10/17 07:23:04;;;;;;;8.33;5.00;;;;;;;;;;5062082;28;20221;-67
2021/10/17 07:25:35;;;;;;;6.47;3.93;;;;;;;;;;5065301;28;20206;-67
2021/10/17 07:28:08;;;;;;;5.67;4.40;;;;;;;;;;5066970;28;20214;-67
2021/10/17 07:30:39;;;;;;;10.73;4.93;;;;;;;;;;5054660;28;20615;-68
2021/10/17 07:33:14;;;;;;;5.47;4.17;;;;;;;;;;5065649;28;20225;-68
2021/10/17 07:35:44;;;;;;;9.07;4.30;;;;;;;;;;5068283;28;20258;-69
2021/10/17 07:38:18;;;;;;;9.17;4.60;;;;;;;;;;5067108;28;20193;-70
2021/10/17 07:40:56;;;;;;;9.57;4.63;;;;;;;;;;5062622;28;20225;-67
2021/10/17 07:43:28;;;;;;;11.13;5.37;;;;;;;;;;5064693;28;20202;-68
2021/10/17 07:46:02;;;;;;;6.83;4.60;;;;;;;;;;5064870;28;20636;-68
2021/10/17 07:48:36;;;;;;;7.00;4.73;;;;;;;;;;5067866;28;20698;-68
2021/10/17 07:51:10;;;;;;;8.30;5.07;;;;;;;;;;5061079;28;20208;-70
2021/10/17 07:53:42;;;;;;;6.20;4.60;;;;;;;;;;5050538;28;20229;-69
2021/10/17 07:56:11;;;;;;;5.33;4.40;;;;;;;;;;5061721;28;20210;-69
2021/10/17 07:58:42;;;;;;;8.13;4.40;;;;;;;;;;5066629;28;20223;-69
2021/10/17 08:01:14;;;;;;;6.20;4.87;;;;;;;;;;5055433;28;20552;-69
2021/10/17 08:03:44;;;;;;;6.80;4.47;;;;;;;;;;5067983;28;20216;-69
2021/10/17 08:06:19;;;;;;;8.73;4.77;;;;;;;;;;5071963;28;20193;-68
2021/10/17 08:08:54;;;;;;;7.47;4.40;;;;;;;;;;5065654;28;20284;-67
2021/10/17 08:11:26;;;;;;;5.93;4.50;;;;;;;;;;5058589;28;20690;-67
2021/10/17 08:13:58;;;;;;;7.77;4.80;;;;;;;;;;5066703;28;20492;-66
2021/10/17 08:16:28;;;;;;;6.80;4.50;;;;;;;;;;5052096;28;20194;-68
2021/10/17 08:19:00;;;;;;;6.97;4.63;;;;;;;;;;5065405;28;20225;-66
2021/10/17 08:21:30;;;;;;;20.20;5.30;;;;;;;;;;5060572;28;20263;-67
2021/10/17 08:24:00;;;;;;;5.47;4.60;;;;;;;;;;5067073;28;20674;-67
2021/10/17 08:26:28;;;;;;;6.13;4.67;;;;;;;;;;5054817;28;20710;-66
2021/10/17 08:28:59;;;;;;;12.17;5.00;;;;;;;;;;5048316;28;20226;-67
2021/10/17 08:31:31;;;;;;;7.77;4.80;;;;;;;;;;5059266;28;20698;-66
2021/10/17 08:34:01;;;;;;;8.43;4.83;;;;;;;;;;5046222;28;20274;-66
2021/10/17 08:36:32;;;;;;;8.17;4.83;;;;;;;;;;5062781;28;20216;-67
2021/10/17 08:39:23;;;;;;;8.57;4.80;;;;;;;;;;5048465;28;20194;-67
2021/10/17 08:41:53;;;;;;;6.33;4.83;;;;;;;;;;5061845;28;20206;-66
2021/10/17 08:44:35;;;;;;;7.17;4.23;;;;;;;;;;5077989;28;20255;-67
2021/10/17 08:47:13;;;;;;;8.90;4.80;;;;;;;;;;5059673;28;20209;-65
2021/10/17 08:49:43;;;;;;;6.83;4.47;;;;;;;;;;5054899;28;20226;-65
2021/10/17 08:52:15;;;;;;;9.17;4.47;;;;;;;;;;5049365;28;20189;-68
2021/10/17 08:54:46;;;;;;;8.80;4.30;;;;;;;;;;5067466;28;20202;-68
2021/10/17 08:57:18;;;;;;;7.83;4.43;;;;;;;;;;5063580;28;20221;-70
2021/10/17 08:59:51;;;;;;;7.50;4.37;;;;;;;;;;5031006;28;20509;-69
2021/10/17 09:02:22;;;;;;;9.10;4.87;;;;;;;;;;5067032;28;20201;-66
2021/10/17 09:05:02;;;;;;;6.53;3.90;;;;;;;;;;5068805;28;20206;-67
2021/10/17 09:07:33;;;;;;;6.80;3.80;;;;;;;;;;5065793;28;20213;-67
2021/10/17 09:10:13;;;;;;;9.37;4.37;;;;;;;;;;5034228;28;20527;-67
2021/10/17 09:12:44;;;;;;;9.57;4.30;;;;;;;;;;5069771;28;20189;-67
2021/10/17 09:15:19;;;;;;;8.53;3.80;;;;;;;;;;5054455;28;20265;-67
2021/10/17 09:18:08;;;;;;;6.57;3.93;;;;;;;;;;5076651;28;20228;-68
2021/10/17 09:20:37;;;;;;;6.23;3.60;;;;;;;;;;5087357;28;20189;-66
2021/10/17 09:23:09;;;;;;;6.87;4.00;;;;;;;;;;5064456;28;20213;-66
2021/10/17 09:25:38;;;;;;;6.97;4.20;;;;;;;;;;5084605;28;20258;-66
2021/10/17 09:28:21;;;;;;;5.60;3.73;;;;;;;;;;5064627;28;20676;-66
2021/10/17 09:30:57;;;;;;;6.77;3.70;;;;;;;;;;5082569;28;20209;-71
2021/10/17 09:33:45;;;;;;;5.70;3.50;;;;;;;;;;5076795;28;20228;-68
2021/10/17 09:36:24;;;;;;;5.47;3.67;;;;;;;;;;5103364;27;20437;-68
2021/10/17 09:39:10;;;;;;;7.67;3.87;;;;;;;;;;5085735;28;20200;-67
2021/10/17 09:41:48;;;;;;;6.70;3.60;;;;;;;;;;5073287;28;20185;-66
2021/10/17 09:44:18;;;;;;;6.13;3.90;;;;;;;;;;5086132;28;20653;-65
2021/10/17 09:46:59;;;;;;;7.00;3.83;;;;;;;;;;5047745;28;20674;-67
2021/10/17 09:49:30;;;;;;;13.47;5.20;;;;;;;;;;5081799;28;20196;-66
2021/10/17 09:52:17;;;;;;;8.20;4.70;;;;;;;;;;5071984;28;20201;-68
2021/10/17 09:54:52;;;;;;;12.40;4.43;;;;;;;;;;5072971;28;20656;-67
2021/10/17 09:57:24;;;;;;;10.57;4.30;;;;;;;;;;5081816;28;20225;-64
2021/10/17 09:59:58;;;;;;;10.60;4.07;;;;;;;;;;5088641;28;20654;-65
2021/10/17 10:02:28;;;;;;;7.63;3.90;;;;;;;;;;5085007;28;20197;-65
2021/10/17 10:05:02;;;;;;;10.53;3.97;;;;;;;;;;5068855;28;20201;-64
2021/10/17 10:07:40;;;;;;;8.30;3.73;;;;;;;;;;5079444;28;20196;-66
2021/10/17 10:10:10;;;;;;;7.27;3.47;;;;;;;;;;5077557;28;20210;-67
2021/10/17 10:12:44;;;;;;;5.73;3.57;;;;;;;;;;5062943;28;20197;-66
2021/10/17 10:15:16;;;;;;;6.27;3.53;;;;;;;;;;5084720;28;20213;-66
2021/10/17 10:17:47;;;;;;;4.70;3.30;;;;;;;;;;5084867;28;20201;-66
2021/10/17 10:20:19;;;;;;;5.50;2.87;;;;;;;;;;5042068;28;20251;-64
2021/10/17 10:22:50;;;;;;;5.93;3.23;;;;;;;;;;5055676;28;20214;-64
2021/10/17 10:25:23;;;;;;;5.30;3.40;;;;;;;;;;5055606;28;20202;-63
2021/10/17 10:27:56;;;;;;;5.73;3.03;;;;;;;;;;5060179;28;20565;-64
2021/10/17 10:30:34;;;;;;;7.03;4.03;;;;;;;;;;5078480;28;20209;-64
2021/10/17 10:33:18;;;;;;;4.27;2.67;;;;;;;;;;5060684;28;20216;-64
2021/10/17 10:36:15;;;;;;;4.87;2.80;;;;;;;;;;5067336;28;20202;-66
2021/10/17 10:38:59;;;;;;;5.67;3.33;;;;;;;;;;5049521;28;20198;-66
2021/10/17 10:41:32;;;;;;;4.87;3.20;;;;;;;;;;5053788;28;20714;-64
2021/10/17 10:44:13;;;;;;;4.27;2.90;;;;;;;;;;5045079;28;20218;-64
2021/10/17 10:46:54;;;;;;;5.10;3.23;;;;;;;;;;5068260;28;20217;-67
2021/10/17 10:49:51;;;;;;;4.13;2.80;;;;;;;;;;5046868;28;20201;-66
2021/10/17 10:52:36;;;;;;;6.10;2.97;;;;;;;;;;5063933;28;20212;-66
2021/10/17 10:55:07;;;;;;;7.13;3.73;;;;;;;;;;5058919;28;20718;-65
2021/10/17 10:57:42;;;;;;;5.67;3.10;;;;;;;;;;5059475;28;20680;-65
2021/10/17 11:00:17;;;;;;;3.53;2.70;;;;;;;;;;5050455;28;20208;-65
2021/10/17 11:03:17;;;;;;;4.03;2.80;;;;;;;;;;5054392;28;20200;-64
2021/10/17 11:06:05;;;;;;;6.60;3.07;;;;;;;;;;5048510;28;20703;-65
2021/10/17 11:08:37;;;;;;;5.00;2.97;;;;;;;;;;5069861;28;20202;-67
2021/10/17 11:11:11;;;;;;;4.03;3.13;;;;;;;;;;5050287;28;20205;-68
2021/10/17 11:13:47;;;;;;;6.50;2.93;;;;;;;;;;5065999;28;20642;-68
2021/10/17 11:16:25;;;;;;;5.77;3.40;;;;;;;;;;5069172;28;20229;-67
2021/10/17 11:19:01;;;;;;;4.40;3.10;;;;;;;;;;5065697;28;20244;-67
2021/10/17 11:21:33;;;;;;;4.67;3.00;;;;;;;;;;5068044;28;20212;-67
2021/10/17 11:24:31;;;;;;;4.37;3.13;;;;;;;;;;5066005;28;20228;-67
2021/10/17 11:27:16;;;;;;;6.23;3.60;;;;;;;;;;5067860;28;20220;-68
2021/10/17 11:29:51;;;;;;;5.50;4.00;;;;;;;;;;5068847;28;20221;-67
2021/10/17 11:32:25;;;;;;;4.43;3.83;;;;;;;;;;5052660;28;20192;-67
2021/10/17 11:35:10;;;;;;;4.13;3.27;;;;;;;;;;5065095;28;20233;-67
2021/10/17 11:37:40;;;;;;;4.20;3.47;;;;;;;;;;5060353;28;20208;-66
2021/10/17 11:40:13;;;;;;;5.33;3.50;;;;;;;;;;5067577;28;20256;-66
2021/10/17 11:42:57;;;;;;;5.20;3.40;;;;;;;;;;5064810;28;20201;-66
2021/10/17 11:45:35;;;;;;;4.53;3.13;;;;;;;;;;5063191;28;20650;-66
2021/10/17 11:48:14;;;;;;;4.63;3.20;;;;;;;;;;5070612;28;20235;-67
2021/10/17 11:50:50;;;;;;;4.73;3.10;;;;;;;;;;5052934;28;20265;-65
2021/10/17 11:53:23;;;;;;;5.53;2.83;;;;;;;;;;5064949;28;20731;-67
2021/10/17 11:55:57;;;;;;;7.70;3.00;;;;;;;;;;5070465;28;20287;-67
2021/10/17 11:58:28;;;;;;;5.23;3.10;;;;;;;;;;5057640;28;20209;-66
2021/10/17 12:00:59;;;;;;;6.47;3.10;;;;;;;;;;5066491;28;20209;-66
2021/10/17 12:03:30;;;;;;;4.67;2.90;;;;;;;;;;5065901;28;20193;-67
2021/10/17 12:06:04;;;;;;;2.73;2.50;;;;;;;;;;5071306;28;20224;-65
2021/10/17 12:08:35;;;;;;;4.90;2.80;;;;;;;;;;5053306;28;20220;-66
2021/10/17 12:11:07;;;;;;;3.90;3.07;;;;;;;;;;5062384;28;20210;-68
2021/10/17 12:13:49;;;;;;;5.63;3.20;;;;;;;;;;5062358;28;20209;-67
2021/10/17 12:16:22;;;;;;;4.53;3.03;;;;;;;;;;5063048;28;20271;-65
2021/10/17 12:19:07;;;;;;;6.40;3.00;;;;;;;;;;5066472;28;20228;-66
2021/10/17 12:21:54;;;;;;;5.00;3.00;;;;;;;;;;5067767;28;20202;-65
2021/10/17 12:24:24;;;;;;;4.00;2.63;;;;;;;;;;5066174;28;20710;-65
2021/10/17 12:26:59;;;;;;;6.37;2.60;;;;;;;;;;5052362;28;20213;-66
2021/10/17 12:29:39;;;;;;;4.70;2.70;;;;;;;;;;5060045;28;20206;-66
2021/10/17 12:32:13;;;;;;;3.33;2.53;;;;;;;;;;5061247;28;20228;-66
2021/10/17 12:34:48;;;;;;;4.40;3.00;;;;;;;;;;5063365;28;20224;-67
2021/10/17 12:37:32;;;;;;;5.37;3.20;;;;;;;;;;5058627;28;20225;-68
2021/10/17 12:40:07;;;;;;;4.97;2.70;;;;;;;;;;5067713;28;20225;-69
2021/10/17 12:43:04;;;;;;;4.97;2.60;;;;;;;;;;5058961;28;20205;-67
2021/10/17 12:45:40;;;;;;;3.27;2.63;;;;;;;;;;5067098;28;20225;-67
2021/10/17 12:48:35;;;;;;;4.17;2.80;;;;;;;;;;5062550;28;20629;-67
2021/10/17 12:51:26;;;;;;;3.20;2.57;;;;;;;;;;5052911;28;20616;-67
2021/10/17 12:54:03;;;;;;;3.43;2.53;;;;;;;;;;5078486;28;20244;-67
2021/10/17 12:56:55;;;;;;;4.20;2.10;;;;;;;;;;5061304;28;20201;-67
2021/10/17 13:00:06;;;;;;;3.57;2.17;;;;;;;;;;5071464;28;20280;-67
2021/10/17 13:02:50;;;;;;;5.70;2.60;;;;;;;;;;5064379;28;20216;-68
2021/10/17 13:05:21;;;;;;;4.77;2.63;;;;;;;;;;5045365;28;20768;-68
2021/10/17 13:07:49;;;;;;;4.00;2.70;;;;;;;;;;5064762;28;20227;-68
2021/10/17 13:10:27;;;;;;;3.67;2.60;;;;;;;;;;5046566;28;20279;-67
2021/10/17 13:12:58;;;;;;;3.40;2.53;;;;;;;;;;5075157;28;20544;-67
2021/10/17 13:15:31;;;;;;;3.73;2.50;;;;;;;;;;5051656;28;20528;-68
2021/10/17 13:18:06;;;;;;;3.77;2.07;;;;;;;;;;5049544;28;20339;-67
2021/10/17 13:20:38;;;;;;;4.57;2.40;;;;;;;;;;5049511;28;20202;-68
2021/10/17 13:23:17;;;;;;;3.63;2.60;;;;;;;;;;5045584;28;20212;-68
2021/10/17 13:25:48;;;;;;;4.03;2.57;;;;;;;;;;5052128;28;20217;-68
2021/10/17 13:28:19;;;;;;;5.40;2.70;;;;;;;;;;5060397;28;20535;-69
2021/10/17 13:30:54;;;;;;;3.87;2.70;;;;;;;;;;5055941;28;20206;-69
2021/10/17 13:33:33;;;;;;;3.93;2.33;;;;;;;;;;5058362;28;20216;-70
2021/10/17 13:36:07;;;;;;;4.57;2.57;;;;;;;;;;5064687;28;20234;-68
2021/10/17 13:38:38;;;;;;;4.77;2.13;;;;;;;;;;5065642;28;20193;-68
2021/10/17 13:41:09;;;;;;;7.40;2.83;;;;;;;;;;5063829;28;20213;-68
2021/10/17 13:43:40;;;;;;;2.90;2.53;;;;;;;;;;5076212;28;20272;-67
2021/10/17 13:46:11;;;;;;;5.93;3.20;;;;;;;;;;5064424;28;20213;-65
2021/10/17 13:48:48;;;;;;;7.47;2.93;;;;;;;;;;5063613;28;20204;-67
2021/10/17 13:51:18;;;;;;;6.27;2.93;;;;;;;;;;5058500;28;20228;-66
2021/10/17 13:53:50;;;;;;;6.63;3.07;;;;;;;;;;5065134;28;20202;-66
2021/10/17 13:56:23;;;;;;;5.20;2.97;;;;;;;;;;5059933;28;20226;-66
2021/10/17 13:58:55;;;;;;;4.97;2.93;;;;;;;;;;5065759;28;20229;-65
2021/10/17 14:01:28;;;;;;;6.40;3.00;;;;;;;;;;5066438;28;20911;-65
2021/10/17 14:03:57;;;;;;;5.40;2.70;;;;;;;;;;5032272;28;20210;-66
2021/10/17 14:06:31;;;;;;;7.33;2.90;;;;;;;;;;5065679;28;20228;-66
2021/10/17 14:09:02;;;;;;;7.77;2.93;;;;;;;;;;5056852;28;20204;-66
2021/10/17 14:11:31;;;;;;;5.77;2.90;;;;;;;;;;5063385;28;20351;-66
2021/10/17 14:14:03;;;;;;;5.00;2.50;;;;;;;;;;5052868;28;20233;-66
2021/10/17 14:16:33;;;;;;;7.13;3.17;;;;;;;;;;5051727;28;20213;-66
2021/10/17 14:19:03;;;;;;;4.87;2.83;;;;;;;;;;5049050;28;20230;-66
2021/10/17 14:21:33;;;;;;;7.07;2.80;;;;;;;;;;5048992;28;20202;-66
2021/10/17 14:24:10;;;;;;;6.23;3.20;;;;;;;;;;5052447;28;20214;-66
2021/10/17 14:26:42;;;;;;;8.43;3.00;;;;;;;;;;5068929;28;20201;-67
2021/10/17 14:29:12;;;;;;;7.80;2.83;;;;;;;;;;5054077;28;20204;-67
2021/10/17 14:31:41;;;;;;;6.07;2.90;;;;;;;;;;5051530;28;20201;-66
2021/10/17 14:34:10;;;;;;;4.43;3.00;;;;;;;;;;5037119;28;20305;-66
2021/10/17 14:36:39;;;;;;;5.70;3.17;;;;;;;;;;5069793;28;20216;-67
2021/10/17 14:39:12;;;;;;;8.27;3.13;;;;;;;;;;5068012;28;20206;-67
2021/10/17 14:41:45;;;;;;;5.83;2.90;;;;;;;;;;5040448;28;20217;-67
2021/10/17 14:44:17;;;;;;;6.77;3.20;;;;;;;;;;5054683;28;20214;-67
2021/10/17 14:47:01;;;;;;;6.73;3.23;;;;;;;;;;5051061;28;20947;-68
2021/10/17 14:49:33;;;;;;;4.33;2.70;;;;;;;;;;5066476;28;20552;-68
2021/10/17 14:52:05;;;;;;;8.93;2.80;;;;;;;;;;5068426;28;20212;-66
2021/10/17 14:54:38;;;;;;;7.50;2.53;;;;;;;;;;5054305;28;20221;-66
2021/10/17 14:57:11;;;;;;;8.03;3.03;;;;;;;;;;5048393;28;20202;-66
2021/10/17 14:59:42;;;;;;;5.30;3.03;;;;;;;;;;5053067;28;20525;-66
2021/10/17 15:02:12;;;;;;;9.83;3.13;;;;;;;;;;5071395;28;20194;-67
2021/10/17 15:04:41;;;;;;;7.07;2.50;;;;;;;;;;5071683;28;20260;-67
2021/10/17 15:07:11;;;;;;;6.43;2.27;;;;;;;;;;5058841;28;20202;-67
2021/10/17 15:09:43;;;;;;;5.37;2.20;;;;;;;;;;5054464;28;20201;-66
2021/10/17 15:12:14;;;;;;;4.37;2.23;;;;;;;;;;5061529;28;20206;-67
2021/10/17 15:14:46;;;;;;;5.63;2.83;;;;;;;;;;5056220;28;20772;-70
2021/10/17 15:17:17;;;;;;;5.40;2.50;;;;;;;;;;5062917;28;20182;-67
2021/10/17 15:19:55;;;;;;;3.47;2.20;;;;;;;;;;5063819;28;20315;-66
2021/10/17 15:22:31;;;;;;;6.80;2.87;;;;;;;;;;5041821;28;20206;-66